createdAt,value
2018-05-14T00:00:52.085Z,99806.36
2018-05-14T00:03:18.666Z,99803.58
2018-05-14T00:05:45.770Z,99801.36
2018-05-14T00:08:13.246Z,99802.69
2018-05-14T00:10:40.440Z,99799.27
2018-05-14T00:13:07.096Z,99804.73
2018-05-14T00:15:33.741Z,99807.66
2018-05-14T00:18:00.284Z,99805.35
2018-05-14T00:20:27.192Z,99803.67
2018-05-14T00:22:53.836Z,99799.09
2018-05-14T00:25:23.648Z,99800.05
2018-05-14T00:27:50.288Z,99801.05
2018-05-14T00:30:17.268Z,99808.55
2018-05-14T00:32:44.005Z,99812.83
2018-05-14T00:35:10.857Z,99818.67
2018-05-14T00:37:37.501Z,99826.02
2018-05-14T00:40:04.018Z,99822.55
2018-05-14T00:42:30.621Z,99822.58
2018-05-14T00:45:02.649Z,99817.75
2018-05-14T00:47:29.224Z,99816.05
2018-05-14T00:49:55.784Z,99812.17
2018-05-14T00:52:22.418Z,99814.91
2018-05-14T00:55:02.151Z,99816.27
2018-05-14T00:57:28.710Z,99806.65
2018-05-14T00:59:55.265Z,99802.10
2018-05-14T01:02:22.008Z,99804.95
2018-05-14T01:04:50.129Z,99801.33
2018-05-14T01:07:16.713Z,99799.95
2018-05-14T01:09:43.417Z,99808.74
2018-05-14T01:12:09.935Z,99805.69
2018-05-14T01:14:37.602Z,99807.41
2018-05-14T01:17:04.301Z,99806.14
2018-05-14T01:19:30.992Z,99805.83
2018-05-14T01:21:57.753Z,99813.84
2018-05-14T01:24:25.305Z,99812.84
2018-05-14T01:26:51.956Z,99807.95
2018-05-14T01:29:18.630Z,99798.19
2018-05-14T01:31:45.338Z,99795.02
2018-05-14T01:34:15.970Z,99799.40
2018-05-14T01:36:42.603Z,99792.38
2018-05-14T01:39:09.236Z,99787.46
2018-05-14T01:41:35.812Z,99779.75
2018-05-14T01:44:07.049Z,99784.23
2018-05-14T01:46:33.749Z,99791.11
2018-05-14T01:49:00.778Z,99796.55
2018-05-14T01:51:27.441Z,99808.88
2018-05-14T01:53:55.316Z,99815.07
2018-05-14T01:56:22.187Z,99817.05
2018-05-14T01:58:48.922Z,99819.13
2018-05-14T02:01:16.041Z,99813.86
2018-05-14T02:03:42.780Z,99818.78
2018-05-14T02:06:09.413Z,99829.00
2018-05-14T02:08:36.043Z,99835.30
2018-05-14T02:11:02.594Z,99839.33
2018-05-14T02:13:29.246Z,99844.95
2018-05-14T02:16:03.176Z,99830.88
2018-05-14T02:18:29.806Z,99834.95
2018-05-14T02:20:56.334Z,99831.92
2018-05-14T02:23:23.205Z,99843.59
2018-05-14T02:25:54.109Z,99842.88
2018-05-14T02:28:20.836Z,99848.29
2018-05-14T02:30:47.489Z,99839.36
2018-05-14T02:33:14.093Z,99844.98
2018-05-14T02:35:44.129Z,99841.60
2018-05-14T02:38:11.308Z,99837.66
2018-05-14T02:40:37.893Z,99842.41
2018-05-14T02:43:04.545Z,99849.58
2018-05-14T02:45:31.302Z,99865.98
2018-05-14T02:47:57.861Z,99870.47
2018-05-14T02:50:24.391Z,99871.33
2018-05-14T02:52:51.018Z,99877.58
2018-05-14T02:55:17.733Z,99874.09
2018-05-14T02:57:44.720Z,99876.93
2018-05-14T03:00:11.671Z,99868.45
2018-05-14T03:02:38.334Z,99868.40
2018-05-14T03:05:08.532Z,99859.06
2018-05-14T03:07:35.172Z,99856.08
2018-05-14T03:10:02.168Z,99860.48
2018-05-14T03:12:28.853Z,99872.92
2018-05-14T03:14:56.601Z,99878.13
2018-05-14T03:17:23.289Z,99882.47
2018-05-14T03:19:50.300Z,99883.23
2018-05-14T03:22:16.896Z,99889.68
2018-05-14T03:24:48.488Z,99895.01
2018-05-14T03:27:15.233Z,99890.40
2018-05-14T03:29:42.020Z,99895.30
2018-05-14T03:32:08.746Z,99901.73
2018-05-14T03:34:38.884Z,99907.50
2018-05-14T03:37:05.673Z,99911.36
2018-05-14T03:39:32.297Z,99912.39
2018-05-14T03:41:58.825Z,99910.45
2018-05-14T03:44:25.580Z,99909.08
2018-05-14T03:46:52.591Z,99914.06
2018-05-14T03:49:19.230Z,99927.88
2018-05-14T03:51:45.828Z,99923.15
2018-05-14T03:54:13.649Z,99926.91
2018-05-14T03:56:40.238Z,99935.98
2018-05-14T03:59:18.924Z,99935.43
2018-05-14T04:01:58.157Z,99936.88
2018-05-14T04:04:41.304Z,99929.95
2018-05-14T04:07:07.884Z,99936.95
2018-05-14T04:09:34.459Z,99938.11
2018-05-14T04:12:01.091Z,99942.91
2018-05-14T04:14:28.873Z,99940.70
2018-05-14T04:16:55.876Z,99944.66
2018-05-14T04:19:22.437Z,99940.73
2018-05-14T04:21:49.247Z,99944.17
2018-05-14T04:24:16.966Z,99947.09
2018-05-14T04:26:44.076Z,99941.92
2018-05-14T04:29:10.780Z,99943.42
2018-05-14T04:31:37.475Z,99943.09
2018-05-14T04:34:08.793Z,99943.37
2018-05-14T04:36:35.477Z,99944.66
2018-05-14T04:39:02.121Z,99954.48
2018-05-14T04:41:28.875Z,99956.03
2018-05-14T04:44:05.850Z,99951.82
2018-05-14T04:46:32.541Z,99960.13
2018-05-14T04:48:59.226Z,99953.74
2018-05-14T04:51:25.898Z,99955.23
2018-05-14T04:53:59.190Z,99962.63
2018-05-14T04:56:26.462Z,99968.33
2018-05-14T04:58:53.097Z,99962.95
2018-05-14T05:01:19.850Z,99970.22
2018-05-14T05:03:50.379Z,99959.59
2018-05-14T05:06:17.049Z,99965.98
2018-05-14T05:08:43.677Z,99958.27
2018-05-14T05:11:10.970Z,99962.63
2018-05-14T05:13:37.858Z,99957.27
2018-05-14T05:16:04.340Z,99955.95
2018-05-14T05:18:30.973Z,99960.98
2018-05-14T05:20:57.544Z,99961.88
2018-05-14T05:23:27.508Z,99963.13
2018-05-14T05:25:54.319Z,99971.15
2018-05-14T05:28:21.893Z,99967.47
2018-05-14T05:30:48.402Z,99969.78
2018-05-14T05:33:28.286Z,99967.83
2018-05-14T05:35:54.840Z,99979.19
2018-05-14T05:38:21.466Z,99976.17
2018-05-14T05:40:47.940Z,99978.12
2018-05-14T05:43:14.772Z,99977.30
2018-05-14T05:45:41.438Z,99975.66
2018-05-14T05:48:08.445Z,99983.31
2018-05-14T05:50:35.144Z,99981.98
2018-05-14T05:53:06.906Z,99971.19
2018-05-14T05:55:33.613Z,99974.94
2018-05-14T05:58:00.189Z,99977.64
2018-05-14T06:00:26.961Z,99985.98
2018-05-14T06:02:53.967Z,99986.58
2018-05-14T06:05:20.554Z,99983.98
2018-05-14T06:07:47.262Z,99980.50
2018-05-14T06:10:13.958Z,99983.55
2018-05-14T06:12:40.979Z,99983.99
2018-05-14T06:15:07.896Z,99987.23
2018-05-14T06:17:34.572Z,99986.65
2018-05-14T06:20:01.278Z,99986.06
2018-05-14T06:22:27.941Z,99997.18
2018-05-14T06:24:57.824Z,99994.59
2018-05-14T06:27:24.530Z,99994.91
2018-05-14T06:29:51.259Z,99984.69
2018-05-14T06:32:17.804Z,99980.89
2018-05-14T06:34:47.785Z,99990.76
2018-05-14T06:37:14.347Z,99986.61
2018-05-14T06:39:40.992Z,99986.63
2018-05-14T06:42:07.635Z,99990.90
2018-05-14T06:44:35.314Z,99988.03
2018-05-14T06:47:02.817Z,99992.39
2018-05-14T06:49:29.761Z,99997.72
2018-05-14T06:51:56.478Z,100007.97
2018-05-14T06:54:24.129Z,100008.05
2018-05-14T06:56:50.711Z,100005.63
2018-05-14T06:59:17.355Z,99999.22
2018-05-14T07:01:44.040Z,99999.25
2018-05-14T07:04:13.733Z,100009.19
2018-05-14T07:06:40.454Z,100003.59
2018-05-14T07:09:07.377Z,100015.69
2018-05-14T07:11:34.078Z,100005.72
2018-05-14T07:14:03.722Z,100008.75
2018-05-14T07:16:30.514Z,100023.30
2018-05-14T07:18:57.165Z,100016.06
2018-05-14T07:21:24.158Z,100012.53
2018-05-14T07:23:51.049Z,100020.22
2018-05-14T07:26:17.745Z,100019.87
2018-05-14T07:28:44.329Z,100021.39
2018-05-14T07:31:10.906Z,100026.41
2018-05-14T07:33:37.558Z,100023.62
2018-05-14T07:36:04.290Z,100030.72
2018-05-14T07:38:31.123Z,100030.91
2018-05-14T07:40:58.181Z,100032.98
2018-05-14T07:43:26.155Z,100032.84
2018-05-14T07:45:52.782Z,100035.04
2018-05-14T07:48:19.470Z,100030.73
2018-05-14T07:50:46.059Z,100028.66
2018-05-14T07:53:13.895Z,100032.27
2018-05-14T07:55:40.611Z,100036.36
2018-05-14T07:58:07.248Z,100030.45
2018-05-14T08:00:33.989Z,100031.30
2018-05-14T08:03:01.202Z,100027.90
2018-05-14T08:05:28.139Z,100042.17
2018-05-14T08:07:54.810Z,100031.94
2018-05-14T08:10:21.475Z,100032.20
2018-05-14T08:12:48.113Z,100024.45
2018-05-14T08:15:14.670Z,100022.41
2018-05-14T08:17:41.248Z,100026.09
2018-05-14T08:20:08.017Z,100026.22
2018-05-14T08:22:34.621Z,100034.97
2018-05-14T08:25:04.929Z,100029.13
2018-05-14T08:27:31.517Z,100035.67
2018-05-14T08:29:58.255Z,100031.22
2018-05-14T08:32:24.894Z,100041.01
2018-05-14T08:34:59.687Z,100036.91
2018-05-14T08:37:26.374Z,100038.41
2018-05-14T08:39:52.947Z,100046.60
2018-05-14T08:42:19.653Z,100045.69
2018-05-14T08:44:49.662Z,100050.28
2018-05-14T08:47:16.366Z,100050.95
2018-05-14T08:49:43.406Z,100048.46
2018-05-14T08:52:10.036Z,100053.02
2018-05-14T08:54:40.109Z,100058.06
2018-05-14T08:57:06.800Z,100051.80
2018-05-14T08:59:33.549Z,100047.80
2018-05-14T09:02:00.117Z,100049.23
2018-05-14T09:04:30.111Z,100051.41
2018-05-14T09:06:57.137Z,100059.17
2018-05-14T09:09:23.747Z,100054.92
2018-05-14T09:11:50.787Z,100057.88
2018-05-14T09:14:21.813Z,100055.72
2018-05-14T09:16:48.372Z,100064.84
2018-05-14T09:19:15.111Z,100072.87
2018-05-14T09:21:41.676Z,100067.70
2018-05-14T09:24:16.009Z,100071.83
2018-05-14T09:26:43.645Z,100077.44
2018-05-14T09:29:10.712Z,100075.59
2018-05-14T09:31:37.314Z,100080.45
2018-05-14T09:34:06.915Z,100069.89
2018-05-14T09:36:33.590Z,100073.58
2018-05-14T09:39:00.285Z,100076.70
2018-05-14T09:41:26.844Z,100077.91
2018-05-14T09:43:57.404Z,100082.53
2018-05-14T09:46:23.901Z,100083.39
2018-05-14T09:48:50.469Z,100082.45
2018-05-14T09:51:17.821Z,100083.99
2018-05-14T09:53:54.254Z,100078.92
2018-05-14T09:56:20.846Z,100083.28
2018-05-14T09:58:47.838Z,100094.03
2018-05-14T10:01:14.466Z,100109.49
2018-05-14T10:03:51.706Z,100099.44
2018-05-14T10:06:18.367Z,100098.55
2018-05-14T10:08:45.350Z,100097.15
2018-05-14T10:11:11.990Z,100092.00
2018-05-14T10:13:38.667Z,100096.25
2018-05-14T10:16:05.391Z,100091.84
2018-05-14T10:18:32.349Z,100091.64
2018-05-14T10:20:59.638Z,100085.09
2018-05-14T10:23:39.964Z,100087.77
2018-05-14T10:26:06.600Z,100096.28
2018-05-14T10:28:33.284Z,100088.83
2018-05-14T10:30:59.782Z,100086.80
2018-05-14T10:33:30.276Z,100079.59
2018-05-14T10:35:56.885Z,100079.52
2018-05-14T10:38:23.446Z,100088.27
2018-05-14T10:40:50.011Z,100088.61
2018-05-14T10:43:21.526Z,100090.20
2018-05-14T10:45:48.170Z,100094.61
2018-05-14T10:48:14.827Z,100099.29
2018-05-14T10:50:41.986Z,100101.97
2018-05-14T10:53:14.883Z,100107.53
2018-05-14T10:55:41.459Z,100112.25
2018-05-14T10:58:08.174Z,100111.39
2018-05-14T11:00:34.879Z,100103.34
2018-05-14T11:03:07.207Z,100115.52
2018-05-14T11:05:33.845Z,100102.83
2018-05-14T11:08:00.588Z,100104.91
2018-05-14T11:10:27.235Z,100101.03
2018-05-14T11:13:11.858Z,100094.13
2018-05-14T11:15:38.464Z,100094.52
2018-05-14T11:18:05.390Z,100088.83
2018-05-14T11:20:32.126Z,100089.27
2018-05-14T11:23:05.523Z,100093.17
2018-05-14T11:25:32.203Z,100100.30
2018-05-14T11:27:58.849Z,100098.89
2018-05-14T11:30:26.247Z,100097.34
2018-05-14T11:33:03.192Z,100099.27
2018-05-14T11:35:30.138Z,100108.44
2018-05-14T11:37:57.074Z,100100.84
2018-05-14T11:40:23.818Z,100110.36
2018-05-14T11:42:50.296Z,100114.13
2018-05-14T11:45:16.938Z,100118.70
2018-05-14T11:47:43.838Z,100109.98
2018-05-14T11:50:10.413Z,100112.31
2018-05-14T11:52:38.206Z,100106.11
2018-05-14T11:55:04.781Z,100106.20
2018-05-14T11:57:31.536Z,100115.55
2018-05-14T11:59:58.159Z,100111.92
2018-05-14T12:02:28.772Z,100111.09
2018-05-14T12:04:55.410Z,100112.15
2018-05-14T12:07:22.246Z,100107.11
2018-05-14T12:09:48.964Z,100112.81
2018-05-14T12:12:16.921Z,100109.78
2018-05-14T12:14:43.299Z,100113.80
2018-05-14T12:17:10.249Z,100106.11
2018-05-14T12:19:36.902Z,100105.55
2018-05-14T12:22:03.557Z,100096.72
2018-05-14T12:24:30.192Z,100093.02
2018-05-14T12:26:56.852Z,100093.38
2018-05-14T12:29:23.518Z,100093.42
2018-05-14T12:31:50.111Z,100086.79
2018-05-14T12:34:20.565Z,100094.67
2018-05-14T12:36:47.186Z,100088.92
2018-05-14T12:39:13.826Z,100078.91
2018-05-14T12:41:41.111Z,100091.37
2018-05-14T12:44:12.238Z,100083.16
2018-05-14T12:46:38.886Z,100092.61
2018-05-14T12:49:05.546Z,100093.55
2018-05-14T12:51:32.153Z,100094.32
2018-05-14T12:54:02.778Z,100095.88
2018-05-14T12:56:29.753Z,100098.59
2018-05-14T12:58:56.393Z,100092.25
2018-05-14T13:01:23.090Z,100102.22
2018-05-14T13:03:53.422Z,100104.06
2018-05-14T13:06:20.021Z,100105.56
2018-05-14T13:08:46.782Z,100119.42
2018-05-14T13:11:13.490Z,100119.06
2018-05-14T13:13:45.389Z,100112.60
2018-05-14T13:16:12.117Z,100117.27
2018-05-14T13:18:38.629Z,100107.44
2018-05-14T13:21:05.452Z,100119.38
2018-05-14T13:23:35.749Z,100116.68
2018-05-14T13:26:02.404Z,100121.34
2018-05-14T13:28:29.089Z,100121.03
2018-05-14T13:30:55.829Z,100132.45
2018-05-14T13:33:29.055Z,100125.03
2018-05-14T13:35:55.720Z,100124.45
2018-05-14T13:38:22.336Z,100121.53
2018-05-14T13:40:49.045Z,100121.45
2018-05-14T13:43:27.861Z,100120.02
2018-05-14T13:45:55.509Z,100124.69
2018-05-14T13:48:22.117Z,100132.72
2018-05-14T13:50:48.758Z,100140.28
2018-05-14T13:53:22.628Z,100137.11
2018-05-14T13:55:49.301Z,100135.14
2018-05-14T13:58:15.985Z,100132.98
2018-05-14T14:00:42.669Z,100136.05
2018-05-14T14:03:09.339Z,100132.40
2018-05-14T14:05:36.008Z,100134.42
2018-05-14T14:08:02.633Z,100141.78
2018-05-14T14:10:29.246Z,100136.43
2018-05-14T14:12:55.915Z,100137.80
2018-05-14T14:15:22.619Z,100148.41
2018-05-14T14:17:49.273Z,100133.91
2018-05-14T14:20:16.390Z,100146.91
2018-05-14T14:22:47.743Z,100155.86
2018-05-14T14:25:14.369Z,100149.56
2018-05-14T14:27:41.087Z,100145.66
2018-05-14T14:30:07.715Z,100141.03
2018-05-14T14:32:34.446Z,100135.61
2018-05-14T14:35:01.267Z,100140.84
2018-05-14T14:37:27.939Z,100146.34
2018-05-14T14:39:54.571Z,100137.59
2018-05-14T14:42:24.512Z,100142.09
2018-05-14T14:44:51.233Z,100142.56
2018-05-14T14:47:17.855Z,100137.73
2018-05-14T14:49:44.581Z,100131.70
2018-05-14T14:52:12.251Z,100143.15
2018-05-14T14:54:38.895Z,100143.23
2018-05-14T14:57:05.556Z,100141.81
2018-05-14T14:59:32.174Z,100148.61
2018-05-14T15:02:04.774Z,100145.60
2018-05-14T15:04:31.481Z,100150.54
2018-05-14T15:06:58.162Z,100147.02
2018-05-14T15:09:24.761Z,100146.86
2018-05-14T15:11:51.456Z,100148.31
2018-05-14T15:14:18.090Z,100148.14
2018-05-14T15:16:44.706Z,100149.39
2018-05-14T15:19:12.109Z,100143.17
2018-05-14T15:21:45.117Z,100149.39
2018-05-14T15:24:11.854Z,100150.83
2018-05-14T15:26:39.054Z,100156.13
2018-05-14T15:29:05.774Z,100151.27
2018-05-14T15:31:32.406Z,100140.48
2018-05-14T15:33:59.144Z,100133.20
2018-05-14T15:36:25.760Z,100131.20
2018-05-14T15:38:52.400Z,100128.95
2018-05-14T15:41:19.172Z,100125.71
2018-05-14T15:43:52.808Z,100120.03
2018-05-14T15:46:19.357Z,100125.73
2018-05-14T15:48:46.073Z,100124.77
2018-05-14T15:51:12.790Z,100138.28
2018-05-14T15:53:39.527Z,100144.80
2018-05-14T15:56:06.095Z,100143.72
2018-05-14T15:58:32.773Z,100136.25
2018-05-14T16:00:59.408Z,100138.44
2018-05-14T16:03:26.365Z,100152.17
2018-05-14T16:05:52.959Z,100138.41
2018-05-14T16:08:19.723Z,100134.53
2018-05-14T16:10:46.318Z,100139.66
2018-05-14T16:13:16.538Z,100140.50
2018-05-14T16:15:43.215Z,100143.31
2018-05-14T16:18:09.799Z,100153.28
2018-05-14T16:20:36.997Z,100159.06
2018-05-14T16:23:10.010Z,100154.02
2018-05-14T16:25:36.644Z,100163.38
2018-05-14T16:28:03.322Z,100144.06
2018-05-14T16:30:30.073Z,100160.02
2018-05-14T16:33:00.337Z,100155.31
2018-05-14T16:35:26.904Z,100161.69
2018-05-14T16:37:53.316Z,100163.96
2018-05-14T16:40:19.896Z,100168.24
2018-05-14T16:42:47.660Z,100165.48
2018-05-14T16:45:14.300Z,100174.28
2018-05-14T16:47:40.927Z,100175.42
2018-05-14T16:50:07.513Z,100178.16
2018-05-14T16:52:34.418Z,100173.23
2018-05-14T16:55:01.430Z,100185.15
2018-05-14T16:57:28.385Z,100181.61
2018-05-14T16:59:55.290Z,100178.47
2018-05-14T17:02:22.620Z,100191.78
2018-05-14T17:04:49.315Z,100201.41
2018-05-14T17:07:15.815Z,100196.31
2018-05-14T17:09:42.506Z,100200.93
2018-05-14T17:12:16.327Z,100205.21
2018-05-14T17:14:43.022Z,100206.11
2018-05-14T17:17:09.655Z,100213.30
2018-05-14T17:19:36.311Z,100204.20
2018-05-14T17:22:03.098Z,100201.43
2018-05-14T17:24:29.799Z,100203.09
2018-05-14T17:26:57.402Z,100206.63
2018-05-14T17:29:23.972Z,100205.30
2018-05-14T17:31:57.869Z,100206.86
2018-05-14T17:34:24.514Z,100218.06
2018-05-14T17:36:51.115Z,100214.75
2018-05-14T17:39:17.782Z,100214.62
2018-05-14T17:41:49.690Z,100228.39
2018-05-14T17:44:16.270Z,100232.44
2018-05-14T17:46:42.953Z,100230.95
2018-05-14T17:49:09.535Z,100236.52
2018-05-14T17:51:39.709Z,100243.01
2018-05-14T17:54:06.526Z,100241.70
2018-05-14T17:56:33.133Z,100249.31
2018-05-14T17:58:59.944Z,100248.31
2018-05-14T18:01:30.150Z,100250.16
2018-05-14T18:03:56.747Z,100248.38
2018-05-14T18:06:25.498Z,100251.39
2018-05-14T18:08:52.486Z,100255.41
2018-05-14T18:11:24.072Z,100250.02
2018-05-14T18:13:51.829Z,100256.86
2018-05-14T18:16:18.452Z,100255.58
2018-05-14T18:18:45.459Z,100255.23
2018-05-14T18:21:15.931Z,100261.91
2018-05-14T18:23:46.402Z,100268.52
2018-05-14T18:26:16.892Z,100267.26
2018-05-14T18:28:43.613Z,100267.94
2018-05-14T18:31:19.996Z,100268.84
2018-05-14T18:33:46.671Z,100269.67
2018-05-14T18:36:13.307Z,100276.66
2018-05-14T18:38:40.217Z,100275.45
2018-05-14T18:41:07.097Z,100275.35
2018-05-14T18:43:33.818Z,100281.72
2018-05-14T18:46:00.320Z,100281.23
2018-05-14T18:48:26.961Z,100292.13
2018-05-14T18:50:53.605Z,100289.44
2018-05-14T18:53:24.372Z,100291.08
2018-05-14T18:55:51.031Z,100295.09
2018-05-14T18:58:17.674Z,100294.94
2018-05-14T19:00:44.866Z,100297.88
2018-05-14T19:03:13.273Z,100295.31
2018-05-14T19:05:39.833Z,100298.20
2018-05-14T19:08:06.429Z,100302.46
2018-05-14T19:10:39.553Z,100296.84
2018-05-14T19:13:11.520Z,100296.94
2018-05-14T19:15:43.971Z,100298.95
2018-05-14T19:18:10.713Z,100300.06
2018-05-14T19:20:37.821Z,100299.31
2018-05-14T19:23:16.782Z,100297.10
2018-05-14T19:25:43.364Z,100306.90
2018-05-14T19:31:11.094Z,100298.59
2018-05-14T19:33:43.802Z,100295.51
2018-05-14T19:36:10.603Z,100298.52
2018-05-14T19:38:37.198Z,100295.98
2018-05-14T19:41:06.941Z,100295.38
2018-05-14T19:43:33.721Z,100302.72
2018-05-14T19:46:00.279Z,100299.40
2018-05-14T19:48:26.946Z,100297.22
2018-05-14T19:50:53.683Z,100294.62
2018-05-14T19:53:20.325Z,100299.47
2018-05-14T19:55:46.965Z,100296.61
2018-05-14T19:58:13.626Z,100289.36
2018-05-14T20:00:40.215Z,100291.63
2018-05-14T20:03:12.365Z,100288.39
2018-05-14T20:05:39.078Z,100293.84
2018-05-14T20:08:05.801Z,100286.95
2018-05-14T20:10:32.465Z,100292.98
2018-05-14T20:12:59.443Z,100289.58
2018-05-14T20:15:26.043Z,100296.12
2018-05-14T20:17:53.050Z,100298.20
2018-05-14T20:20:21.353Z,100295.23
2018-05-14T20:22:47.788Z,100299.45
2018-05-14T20:25:14.439Z,100298.17
2018-05-14T20:27:41.070Z,100296.81
2018-05-14T20:30:07.526Z,100295.94
2018-05-14T20:32:37.526Z,100296.50
2018-05-14T20:35:04.117Z,100296.48
2018-05-14T20:37:30.816Z,100293.96
2018-05-14T20:39:57.421Z,100293.30
2018-05-14T20:42:25.245Z,100297.83
2018-05-14T20:44:51.869Z,100298.68
2018-05-14T20:47:18.661Z,100292.00
2018-05-14T20:49:45.284Z,100296.70
2018-05-14T20:52:12.000Z,100298.66
2018-05-14T20:54:38.572Z,100299.31
2018-05-14T20:57:05.211Z,100295.34
2018-05-14T20:59:31.844Z,100296.98
2018-05-14T21:01:58.797Z,100292.77
2018-05-14T21:04:25.429Z,100289.62
2018-05-14T21:06:52.040Z,100289.16
2018-05-14T21:09:18.861Z,100294.92
2018-05-14T21:11:50.276Z,100292.88
2018-05-14T21:14:16.946Z,100298.33
2018-05-14T21:16:43.539Z,100289.96
2018-05-14T21:19:10.161Z,100293.27
2018-05-14T21:21:37.214Z,100285.55
2018-05-14T21:24:04.821Z,100276.41
2018-05-14T21:26:31.326Z,100278.20
2018-05-14T21:28:57.924Z,100282.86
2018-05-14T21:31:26.232Z,100271.13
2018-05-14T21:33:52.878Z,100266.89
2018-05-14T21:36:19.469Z,100267.09
2018-05-14T21:38:46.186Z,100266.05
2018-05-14T21:41:13.296Z,100265.12
2018-05-14T21:43:40.237Z,100271.41
2018-05-14T21:46:06.966Z,100266.70
2018-05-14T21:48:34.134Z,100265.08
2018-05-14T21:51:01.113Z,100271.78
2018-05-14T21:53:28.027Z,100274.23
2018-05-14T21:55:54.944Z,100273.70
2018-05-14T21:58:21.950Z,100282.50
2018-05-14T22:00:51.769Z,100271.58
2018-05-14T22:03:18.420Z,100269.34
2018-05-14T22:05:49.907Z,100269.11
2018-05-14T22:08:16.542Z,100271.13
2018-05-14T22:10:43.341Z,100273.86
2018-05-14T22:13:10.035Z,100266.05
2018-05-14T22:15:36.679Z,100268.39
2018-05-14T22:18:03.185Z,100281.62
2018-05-14T22:20:29.667Z,100278.19
2018-05-14T22:22:56.424Z,100277.53
2018-05-14T22:25:23.123Z,100272.16
2018-05-14T22:27:49.816Z,100268.82
2018-05-14T22:30:16.614Z,100263.92
2018-05-14T22:32:44.132Z,100266.16
2018-05-14T22:35:10.757Z,100277.42
2018-05-14T22:37:37.724Z,100269.29
2018-05-14T22:40:04.201Z,100270.94
2018-05-14T22:42:30.902Z,100271.98
2018-05-14T22:44:57.546Z,100273.53
2018-05-14T22:47:24.079Z,100277.56
2018-05-14T22:49:51.094Z,100266.95
2018-05-14T22:52:18.023Z,100273.76
2018-05-14T22:54:44.656Z,100270.41
2018-05-14T22:57:11.313Z,100274.20
2018-05-14T22:59:37.992Z,100276.38
2018-05-14T23:02:05.676Z,100276.05
2018-05-14T23:04:32.401Z,100272.73
2018-05-14T23:06:59.027Z,100279.20
2018-05-14T23:09:25.913Z,100281.45
2018-05-14T23:11:53.090Z,100274.27
2018-05-14T23:14:19.982Z,100266.07
2018-05-14T23:16:46.709Z,100261.58
2018-05-14T23:19:13.475Z,100258.23
2018-05-14T23:21:46.513Z,100261.63
2018-05-14T23:24:13.092Z,100263.11
2018-05-14T23:26:39.816Z,100254.63
2018-05-14T23:29:06.574Z,100261.98
2018-05-14T23:31:36.602Z,100258.62
2018-05-14T23:34:03.834Z,100261.62
2018-05-14T23:36:30.646Z,100258.56
2018-05-14T23:38:57.493Z,100253.47
2018-05-14T23:41:24.399Z,100251.94
2018-05-14T23:43:51.194Z,100245.92
2018-05-14T23:46:17.975Z,100242.25
2018-05-14T23:48:44.641Z,100249.34
2018-05-14T23:51:11.431Z,100256.40
2018-05-14T23:53:38.106Z,100259.91
2018-05-14T23:56:04.835Z,100255.79
2018-05-14T23:58:31.522Z,100254.94
